Latest Weather Observations for Lombadina

IDW60801

Issued at 9:32 pm WST Wednesday 29 July 2015 (issued every 30 minutes, with the page automatically refreshed every 10 minutes)

About weather observations | Map of weather stations | Latest weather observations for WA | Other Formats
Station Details ID: 503016 Name: LOMBADINA AIRSTRIP Lat: -16.52 Lon: 122.92 Height: 42.0 m
Data from the previous 72 hours. | See also: Recent months for locations in Western Australia
Date/Time
WST
Temp
°C
App
Temp
°C
Dew
Point
Rel
Hum
%
Delta-T
°C
Wind Press
QNH
hPa
Press
MSL
hPa
Rain
since 9 am
mm
Dir
 
Spd
km/h
Gust
km/h
Spd
kts
Gust
kts
29/09:30pm 20.3 22.2 18.9 92 0.9 SW 7 11 4 6 1018.5 1018.4 0.0
29/09:00pm 18.8 20.9 17.1 90 1.0 SSW 2 4 1 2 1018.4 1018.3 0.0
29/08:30pm 19.1 20.8 16.3 84 1.7 SSW 2 4 1 2 1018.2 1018.0 0.0
29/08:00pm 20.0 22.1 16.2 79 2.3 CALM 0 4 0 2 1018.0 1017.8 0.0
29/07:30pm 21.6 23.2 17.0 75 2.8 NNW 4 6 2 3 1017.6 1017.4 0.0
29/07:00pm 21.8 22.8 16.4 71 3.3 NNW 6 7 3 4 1017.1 1016.9 0.0
29/06:30pm 23.0 23.9 16.2 65 4.1 NNW 6 7 3 4 1016.7 1016.5 0.0
29/06:00pm 23.9 24.2 15.0 57 5.3 NNW 7 11 4 6 1016.3 1016.1 0.0
29/05:30pm 25.1 25.0 13.3 48 6.9 NW 6 7 3 4 1016.0 1015.8 0.0
29/05:00pm 27.3 27.4 14.0 44 7.9 NW 6 9 3 5 1015.8 1015.6 0.0
29/04:30pm 29.9 27.8 5.9 22 12.7 SE 6 9 3 5 1015.8 1015.6 0.0
29/04:00pm 30.0 27.7 5.9 22 12.7 SE 7 13 4 7 1015.7 1015.5 0.0
29/03:30pm 29.9 27.4 6.5 23 12.5 SE 9 17 5 9 1015.8 1015.6 0.0
29/03:00pm 29.5 27.1 6.8 24 12.1 SE 9 15 5 8 1015.9 1015.7 0.0
29/02:30pm 29.2 27.1 8.4 27 11.4 SE 9 17 5 9 1016.1 1015.9 0.0
29/02:00pm 28.6 26.2 8.8 29 10.9 SE 11 19 6 10 1016.4 1016.2 0.0
29/01:30pm 29.1 26.6 8.4 27 11.4 E 11 17 6 9 1016.6 1016.4 0.0
29/01:00pm 28.8 26.1 9.1 29 10.9 ENE 13 22 7 12 1017.1 1016.9 0.0
29/12:30pm 28.7 27.2 10.4 32 10.4 E 9 17 5 9 1017.6 1017.4 0.0
29/12:00pm 28.0 26.3 11.1 35 9.6 E 11 19 6 10 1018.1 1017.9 0.0
29/11:30am 28.5 27.1 13.3 39 9.0 E 13 22 7 12 1018.5 1018.4 0.0
29/11:00am 27.1 25.2 13.1 42 8.2 ESE 15 26 8 14 1018.8 1018.7 0.0
29/10:30am 27.7 26.4 13.7 42 8.3 E 13 24 7 13 1019.2 1019.1 0.0
29/10:00am 26.6 25.2 14.4 47 7.3 E 15 24 8 13 1019.4 1019.3 0.0
29/09:30am 26.9 25.7 15.0 48 7.2 ESE 15 28 8 15 1019.7 1019.6 0.0
29/09:00am 25.7 24.6 15.2 52 6.3 ESE 15 24 8 13 1019.7 1019.6 0.0
29/08:30am 25.5 25.8 16.9 59 5.3 ESE 11 22 6 12 1019.6 1019.5 0.0
29/08:00am 24.0 24.6 17.7 68 3.9 SE 11 24 6 13 1019.4 1019.3 0.0
29/07:30am 22.7 23.7 17.7 73 3.1 SE 9 17 5 9 1019.2 1019.1 0.0
29/07:00am 21.3 21.9 16.7 75 2.8 SE 9 17 5 9 1018.8 1018.7 0.0
29/06:30am 20.6 21.0 16.2 76 2.6 SE 9 17 5 9 1018.5 1018.4 0.0
29/06:00am 20.5 20.7 15.7 74 2.9 SE 9 13 5 7 1018.2 1018.0 0.0
29/05:30am 20.8 20.7 14.9 69 3.5 ESE 9 15 5 8 1018.0 1017.8 0.0
29/05:00am 20.9 20.6 14.3 66 3.8 ESE 9 17 5 9 1017.6 1017.4 0.0
29/04:30am 21.0 20.9 13.9 64 4.1 SE 7 15 4 8 1017.4 1017.2 0.0
29/04:00am 20.9 20.7 13.6 63 4.2 SE 7 15 4 8 1017.3 1017.1 0.0
29/03:30am 21.5 20.8 13.1 58 4.8 SE 9 15 5 8 1017.3 1017.1 0.0
29/03:00am 21.6 21.1 12.8 57 5.0 SSE 7 15 4 8 1017.4 1017.2 0.0
29/02:30am 22.0 21.7 13.2 57 5.1 SSE 7 11 4 6 1017.4 1017.2 0.0
29/02:00am 20.3 20.8 14.9 71 3.2 SSE 6 7 3 4 1017.6 1017.4 0.0
29/01:30am 20.7 21.3 15.3 71 3.2 SSW 6 7 3 4 1017.8 1017.6 0.0
29/01:00am 21.7 22.4 15.5 68 3.7 S 6 9 3 5 1018.0 1017.8 0.0
29/12:30am 21.2 22.4 15.8 71 3.2 SSW 4 7 2 4 1018.3 1018.1 0.0
29/12:00am 21.0 22.2 16.8 77 2.6 SSW 6 9 3 5 1018.5 1018.4 0.0
 
Date/Time
WST
Temp
°C
App
Temp
°C
Dew
Point
Rel
Hum
%
Delta-T
°C
Wind Press
QNH
hPa
Press
MSL
hPa
Rain
since 9 am
mm
Dir
 
Spd
km/h
Gust
km/h
Spd
kts
Gust
kts
28/11:30pm 21.0 22.7 18.0 83 1.9 SSW 6 11 3 6 1018.7 1018.6 0.0
28/11:00pm 21.1 23.2 18.9 87 1.4 SSW 6 9 3 5 1018.7 1018.6 0.0
28/10:30pm 21.4 23.7 19.9 91 1.0 SSW 7 13 4 7 1018.8 1018.7 0.0
28/10:00pm 21.6 24.6 20.9 96 0.5 SW 6 15 3 8 1018.7 1018.6 0.0
28/09:30pm 20.7 23.4 19.4 92 0.8 W 4 4 2 2 1018.6 1018.5 0.0
28/09:00pm 21.3 24.5 19.7 91 1.0 WNW 2 4 1 2 1018.4 1018.3 0.0
28/08:30pm 21.8 24.7 19.8 88 1.3 WNW 4 4 2 2 1018.3 1018.1 0.0
28/08:00pm 22.3 24.9 19.3 83 1.9 W 4 7 2 4 1018.2 1018.0 0.0
28/07:30pm 23.6 26.4 20.5 83 2.0 WNW 6 7 3 4 1018.0 1017.8 0.0
28/07:00pm 24.1 26.4 19.4 75 3.0 NW 6 9 3 5 1017.8 1017.6 0.0
28/06:30pm 24.8 25.3 13.9 50 6.4 NW 4 6 2 3 1017.5 1017.3 0.0
28/06:00pm 25.8 25.7 13.3 46 7.3 NNW 6 9 3 5 1017.2 1017.0 0.0
28/05:30pm 27.0 27.6 13.0 42 8.2 N 2 4 1 2 1016.9 1016.7 0.0
28/05:00pm 29.5 29.2 11.6 33 10.4 NE 4 6 2 3 1016.8 1016.6 0.0
28/04:30pm 29.8 29.0 10.9 31 10.8 ESE 6 11 3 6 1016.6 1016.4 0.0
28/04:00pm 30.2 28.6 10.2 29 11.4 ESE 9 13 5 7 1016.4 1016.2 0.0
28/03:30pm 31.1 30.2 10.5 28 11.8 ESE 6 9 3 5 1016.2 1016.0 0.0
28/03:00pm 31.2 30.0 10.3 27 11.9 ESE 7 13 4 7 1016.2 1016.0 0.0
28/02:30pm 30.6 29.0 10.2 28 11.6 ESE 9 17 5 9 1016.5 1016.3 0.0
28/02:00pm 30.8 29.2 10.2 28 11.7 E 9 17 5 9 1016.7 1016.5 0.0
28/01:30pm 30.6 28.4 9.2 26 12.0 ESE 11 19 6 10 1017.1 1016.9 0.0
28/01:00pm 30.5 28.5 10.0 28 11.6 E 11 20 6 11 1017.4 1017.2 0.0
28/12:30pm 29.9 27.6 10.6 30 11.0 ESE 13 22 7 12 1018.0 1017.8 0.0
28/12:00pm 29.1 26.6 11.1 32 10.3 ESE 15 22 8 12 1018.6 1018.5 0.0
28/11:30am 28.4 26.3 12.3 37 9.4 ESE 15 24 8 13 1019.0 1018.9 0.0
28/11:00am 28.6 27.2 14.6 42 8.5 SE 15 24 8 13 1019.3 1019.2 0.0
28/10:30am 28.1 27.0 15.4 46 7.8 ESE 15 26 8 14 1019.7 1019.6 0.0
28/10:00am 27.2 25.3 14.2 44 7.8 SE 17 30 9 16 1019.8 1019.7 0.0
28/09:30am 26.6 25.0 15.0 49 7.0 ESE 17 30 9 16 1020.0 1019.9 0.0
28/09:00am 26.3 25.7 16.6 55 6.0 ESE 15 28 8 15 1019.9 1019.8 0.0
28/08:30am 25.8 25.7 16.9 58 5.5 ESE 13 24 7 13 1019.7 1019.6 0.0
28/08:00am 25.1 25.6 17.5 62 4.7 ESE 11 20 6 11 1019.3 1019.2 0.0
28/07:30am 24.3 24.8 17.5 66 4.2 ESE 11 20 6 11 1019.1 1019.0 0.0
28/07:00am 23.5 23.3 16.8 66 4.1 ESE 13 22 7 12 1018.9 1018.8 0.0
28/06:30am 23.1 23.1 16.3 65 4.1 SE 11 20 6 11 1018.5 1018.4 0.0
28/06:00am 23.4 23.1 15.4 60 4.8 ESE 11 22 6 12 1018.1 1017.9 0.0
28/05:30am 23.7 23.5 15.7 61 4.8 SE 11 19 6 10 1017.6 1017.4 0.0
28/05:00am 24.0 23.5 15.8 60 5.0 SE 13 22 7 12 1017.2 1017.0 0.0
28/04:30am 24.5 23.4 14.2 52 6.1 SE 13 24 7 13 1016.9 1016.7 0.0
28/04:00am 24.6 23.3 13.8 51 6.3 SE 13 26 7 14 1016.7 1016.5 0.0
28/03:30am 24.8 23.7 13.0 47 6.9 ESE 11 24 6 13 1016.4 1016.2 0.0
28/03:00am 25.0 23.7 12.6 46 7.2 SE 11 22 6 12 1016.2 1016.0 0.0
28/02:30am 25.4 23.7 12.6 45 7.4 SE 13 30 7 16 1016.0 1015.8 0.0
28/02:00am 25.7 24.1 12.9 45 7.4 SE 13 22 7 12 1016.2 1016.0 0.0
28/01:30am 26.3 24.2 11.1 38 8.6 SE 13 20 7 11 1016.3 1016.1 0.0
28/01:00am 26.7 24.7 10.0 35 9.3 SE 11 20 6 11 1016.6 1016.4 0.0
28/12:30am 27.2 25.2 10.3 34 9.5 SE 11 19 6 10 1016.9 1016.7 0.0
28/12:00am 27.3 25.6 10.0 33 9.7 SE 9 19 5 10 1017.1 1016.9 0.0
 
Date/Time
WST
Temp
°C
App
Temp
°C
Dew
Point
Rel
Hum
%
Delta-T
°C
Wind Press
QNH
hPa
Press
MSL
hPa
Rain
since 9 am
mm
Dir
 
Spd
km/h
Gust
km/h
Spd
kts
Gust
kts
27/11:30pm 27.1 25.0 9.8 33 9.6 SE 11 20 6 11 1017.2 1017.0 0.0
27/11:00pm 26.7 25.2 10.4 36 9.1 SSE 9 19 5 10 1017.4 1017.2 0.0
27/10:30pm 26.0 25.1 11.3 39 8.3 SSE 7 13 4 7 1017.5 1017.3 0.0
27/10:00pm 25.8 25.1 11.4 40 8.2 S 6 13 3 7 1017.6 1017.4 0.0
27/09:30pm 27.4 26.0 11.0 36 9.3 S 9 15 5 8 1017.6 1017.4 0.0
27/09:00pm 27.9 26.5 10.9 34 9.7 S 9 15 5 8 1017.6 1017.4 0.0
27/08:30pm 28.4 27.3 10.6 33 10.1 S 7 17 4 9 1017.5 1017.3 0.0
27/08:00pm 28.2 27.1 10.8 33 9.9 S 7 13 4 7 1017.3 1017.1 0.0
27/07:30pm 28.2 27.3 10.8 33 9.9 SSE 6 11 3 6 1017.0 1016.8 0.0
27/07:00pm 28.3 27.5 10.9 34 9.9 SSE 6 13 3 7 1016.7 1016.5 0.0
27/06:30pm 28.2 27.6 11.7 36 9.5 SSE 6 11 3 6 1016.4 1016.2 0.0
27/06:00pm 27.5 27.1 12.3 39 8.8 SSE 6 9 3 5 1016.1 1015.9 0.0
27/05:30pm 28.2 27.8 12.5 37 9.2 SE 6 11 3 6 1015.9 1015.7 0.0
27/05:00pm 29.6 28.8 11.6 33 10.4 SE 7 13 4 7 1015.6 1015.4 0.0
27/04:30pm 30.2 28.9 11.1 30 11.0 SE 9 15 5 8 1015.4 1015.2 0.0
27/04:00pm 30.6 28.9 11.1 30 11.3 SE 11 19 6 10 1015.4 1015.2 0.0
27/03:30pm 30.3 28.0 10.3 29 11.4 ESE 13 24 7 13 1015.5 1015.3 0.0
27/03:00pm 30.4 27.9 10.9 30 11.2 SE 15 26 8 14 1015.6 1015.4 0.0
27/02:30pm 29.7 26.6 10.4 30 11.0 ESE 17 28 9 15 1015.6 1015.4 0.0
27/02:00pm 29.9 26.7 10.1 29 11.2 SE 17 28 9 15 1015.8 1015.6 0.0
27/01:30pm 29.1 25.7 10.4 31 10.6 SE 19 41 10 22 1016.1 1015.9 0.0
27/01:00pm 29.3 25.4 9.5 29 11.1 SE 20 35 11 19 1016.4 1016.2 0.0
27/12:30pm 28.3 23.8 10.2 32 10.2 SE 24 39 13 21 1016.7 1016.5 0.0
27/12:00pm 28.3 24.6 10.2 32 10.2 ESE 20 35 11 19 1017.0 1016.8 0.0
27/11:30am 27.8 24.0 9.9 32 10.0 ESE 20 37 11 20 1017.4 1017.2 0.0
27/11:00am 26.9 23.0 10.7 36 9.1 SE 22 37 12 20 1018.0 1017.8 0.0
27/10:30am 26.2 22.4 11.1 38 8.5 SE 22 35 12 19 1018.6 1018.5 0.0
27/10:00am 25.3 22.3 12.4 44 7.4 SE 20 35 11 19 1018.9 1018.8 0.0
27/09:30am 24.7 21.2 12.1 45 7.2 SE 22 39 12 21 1019.3 1019.2 0.0
27/09:00am 24.5 20.8 12.7 47 6.8 SE 24 41 13 22 1019.4 1019.3 0.0
27/08:30am 23.8 20.8 12.7 49 6.4 SE 20 41 11 22 1019.6 1019.5 0.0
27/08:00am 23.1 20.2 12.4 51 6.1 SE 19 37 10 20 1019.4 1019.3 0.0
27/07:30am 22.4 19.9 12.4 53 5.7 SE 17 28 9 15 1019.2 1019.1 0.0
27/07:00am 21.8 19.5 11.8 53 5.6 SE 15 26 8 14 1019.1 1019.0 0.0
27/06:30am 21.5 19.0 11.2 52 5.7 SE 15 22 8 12 1018.5 1018.4 0.0
27/06:00am 21.5 18.7 10.1 48 6.2 SE 15 28 8 15 1018.5 1018.4 0.0
27/05:30am 21.9 18.7 9.8 46 6.5 SE 17 32 9 17 1018.3 1018.1 0.0
27/05:00am 22.1 19.1 9.4 44 6.8 SE 15 32 8 17 1018.2 1018.0 0.0
27/04:30am 22.4 19.0 9.3 43 7.0 SE 17 28 9 15 1017.9 1017.7 0.0
27/04:00am 22.6 19.5 9.0 42 7.3 SE 15 30 8 16 1017.7 1017.5 0.0
27/03:30am 22.8 20.1 9.0 41 7.4 SE 13 26 7 14 1017.8 1017.6 0.0
27/03:00am 23.3 19.8 8.9 40 7.7 SE 17 33 9 18 1017.6 1017.4 0.0
27/02:30am 23.7 20.9 8.5 38 8.1 SE 13 24 7 13 1017.6 1017.4 0.0
27/02:00am 24.0 21.2 8.4 37 8.3 SSE 13 24 7 13 1017.5 1017.3 0.0
27/01:30am 24.4 21.5 8.3 35 8.6 SSE 13 24 7 13 1017.7 1017.5 0.0
27/01:00am 24.9 22.8 8.3 34 8.9 SSE 9 22 5 12 1017.8 1017.6 0.0
27/12:30am 24.8 22.8 8.8 36 8.6 SSE 9 19 5 10 1017.9 1017.7 0.0
27/12:00am 24.9 23.1 9.6 38 8.4 SSE 9 17 5 9 1018.0 1017.8 0.0
 
Date/Time
WST
Temp
°C
App
Temp
°C
Dew
Point
Rel
Hum
%
Delta-T
°C
Wind Press
QNH
hPa
Press
MSL
hPa
Rain
since 9 am
mm
Dir
 
Spd
km/h
Gust
km/h
Spd
kts
Gust
kts
26/11:30pm 25.2 23.6 10.3 39 8.3 SSE 9 15 5 8 1018.1 1017.9 0.0
26/11:00pm 25.5 24.4 10.5 39 8.4 SSE 7 15 4 8 1018.3 1018.1 0.0
26/10:30pm 25.4 24.4 11.0 40 8.1 SSE 7 13 4 7 1018.5 1018.4 0.0
26/10:00pm 25.5 24.5 10.9 40 8.2 SSE 7 15 4 8 1018.5 1018.4 0.0

Other Formats:

Comma delimited format used in spreadsheet applications
http://www.bom.gov.au/fwo/IDW60801/IDW60801.99206.axf

JavaScript Object Notation format (JSON) in row-major order
http://www.bom.gov.au/fwo/IDW60801/IDW60801.99206.json